Time;durP1;ratioP1;P1;durP2;ratioP2;P2;SDS_P1;SDS_P2;PMS_P1;PMS_P2;Temp;Humidity;BMP_temperature;BMP_pressure;BME280_temperature;BME280_humidity;BME280_pressure;Samples;Min_cycle;Max_cycle;Signal;HPM_P1;HPM_P2
2023/04/10 00:00:44;;;;;;;25.92;16.02;;;;;;;8.82;100.00;100678.24;1661355;85;21514;-91
2023/04/10 00:03:50;;;;;;;22.30;15.53;;;;;;;8.84;100.00;100674.84;1655872;82;21261;-79
2023/04/10 00:06:56;;;;;;;18.90;14.43;;;;;;;8.82;100.00;100668.70;1665813;83;21239;-80
2023/04/10 00:10:02;;;;;;;22.05;15.13;;;;;;;8.85;100.00;100671.13;1659110;83;21235;-90
2023/04/10 00:13:08;;;;;;;23.05;16.42;;;;;;;8.90;100.00;100678.33;1667947;83;21220;-89
2023/04/10 00:16:14;;;;;;;23.35;16.10;;;;;;;8.84;100.00;100674.84;1647958;85;21198;-90
2023/04/10 00:19:20;;;;;;;21.40;15.28;;;;;;;8.84;100.00;100666.66;1663138;82;21204;-79
2023/04/10 00:22:27;;;;;;;21.85;15.98;;;;;;;8.86;100.00;100676.92;1662678;83;21219;-90
2023/04/10 00:25:33;;;;;;;23.85;17.40;;;;;;;8.79;100.00;100681.78;1652586;85;21231;-80
2023/04/10 00:28:39;;;;;;;21.95;16.00;;;;;;;8.71;100.00;100675.76;1638350;85;21259;-79
2023/04/10 00:31:45;;;;;;;24.35;16.40;;;;;;;8.75;100.00;100674.44;1659935;85;21176;-89
2023/04/10 00:34:52;;;;;;;23.55;15.83;;;;;;;8.68;100.00;100669.23;1612147;86;21273;-79
2023/04/10 00:37:57;;;;;;;24.90;17.00;;;;;;;8.61;100.00;100672.22;1671518;83;21224;-90
2023/04/10 00:43:46;;;;;;;30.57;17.42;;;;;;;8.51;100.00;100666.84;1640620;85;21774;-79
2023/04/10 00:46:52;;;;;;;23.50;15.60;;;;;;;8.42;100.00;100663.67;1676219;83;21289;-90
2023/04/10 00:49:59;;;;;;;24.00;16.48;;;;;;;8.44;100.00;100667.97;1672808;83;21742;-79
2023/04/10 00:53:05;;;;;;;22.22;16.32;;;;;;;8.50;100.00;100661.55;1675712;83;21196;-91
2023/04/10 00:56:09;;;;;;;23.90;16.73;;;;;;;8.47;100.00;100663.21;1666636;82;21204;-79
2023/04/10 00:59:14;;;;;;;26.30;17.40;;;;;;;8.51;100.00;100660.02;1665467;83;21301;-90
2023/04/10 01:07:48;;;;;;;24.82;15.78;;;;;;;8.63;100.00;100662.89;1670257;83;21621;-89
2023/04/10 01:16:11;;;;;;;23.38;16.87;;;;;;;8.58;100.00;100658.92;1665999;85;21197;-80
2023/04/10 01:20:00;;;;;;;25.92;15.15;;;;;;;8.64;100.00;100658.28;1646992;84;21813;-79
2023/04/10 01:23:45;;;;;;;28.92;16.07;;;;;;;8.56;100.00;100659.08;1654585;85;21252;-89
2023/04/10 01:29:54;;;;;;;22.32;15.50;;;;;;;8.52;100.00;100656.82;1675944;84;21277;-90
2023/04/10 01:33:01;;;;;;;19.50;13.68;;;;;;;8.57;100.00;100655.34;1673254;82;21230;-79
2023/04/10 01:36:09;;;;;;;31.17;16.55;;;;;;;8.47;100.00;100655.92;1660373;83;21170;-79
2023/04/10 01:41:40;;;;;;;26.15;16.52;;;;;;;8.50;100.00;100654.23;1681332;83;21249;-89
2023/04/10 01:47:15;;;;;;;27.87;16.97;;;;;;;8.28;100.00;100658.71;1669678;83;22114;-79
2023/04/10 01:52:46;;;;;;;25.90;16.20;;;;;;;8.32;100.00;100647.86;1667534;83;21218;-79
2023/04/10 01:55:52;;;;;;;24.40;15.28;;;;;;;8.41;100.00;100650.55;1672033;82;21742;-79
2023/04/10 02:01:26;;;;;;;24.67;16.65;;;;;;;8.39;100.00;100642.20;1663452;82;21231;-90
2023/04/10 02:04:32;;;;;;;62.17;16.50;;;;;;;8.34;100.00;100638.53;1673975;83;21661;-80
2023/04/10 02:10:20;;;;;;;81.55;18.30;;;;;;;8.37;100.00;100636.87;1638367;84;21320;-80
2023/04/10 02:13:28;;;;;;;84.05;15.03;;;;;;;8.38;100.00;100636.40;1651781;85;21217;-79
2023/04/10 02:16:35;;;;;;;108.83;16.87;;;;;;;8.33;100.00;100638.70;1637542;86;21845;-91
2023/04/10 02:19:41;;;;;;;187.20;16.02;;;;;;;8.31;100.00;100633.89;1669775;82;21260;-80
2023/04/10 02:22:47;;;;;;;120.42;14.65;;;;;;;8.20;100.00;100636.33;1666782;83;21244;-80
2023/04/10 02:25:58;;;;;;;162.27;16.55;;;;;;;8.27;100.00;100636.05;1638926;84;21275;-90
2023/04/10 02:29:01;;;;;;;230.55;17.62;;;;;;;8.31;100.00;100634.74;1668110;83;21184;-79
2023/04/10 02:32:08;;;;;;;186.62;17.23;;;;;;;8.43;100.00;100630.83;1664475;82;21245;-79
2023/04/10 02:35:13;;;;;;;156.57;15.90;;;;;;;8.36;100.00;100626.98;1645542;85;21216;-90
2023/04/10 02:38:19;;;;;;;167.75;15.65;;;;;;;8.19;100.00;100627.30;1667476;83;21276;-90
2023/04/10 02:41:24;;;;;;;119.65;15.93;;;;;;;8.17;100.00;100627.09;1671862;83;21813;-79
2023/04/10 02:44:30;;;;;;;155.27;14.63;;;;;;;8.24;100.00;100623.27;1670665;85;21215;-88
2023/04/10 02:47:36;;;;;;;102.38;14.75;;;;;;;8.23;100.00;100626.98;1667023;83;21762;-90
2023/04/10 02:50:44;;;;;;;78.75;15.50;;;;;;;8.18;100.00;100628.29;1670641;83;21220;-90
2023/04/10 02:53:51;;;;;;;52.47;14.70;;;;;;;8.20;100.00;100624.07;1653739;85;21208;-79
2023/04/10 02:56:57;;;;;;;31.68;14.80;;;;;;;8.05;100.00;100626.46;1659390;85;21232;-90
2023/04/10 03:00:04;;;;;;;37.85;16.32;;;;;;;7.97;100.00;100629.59;1669957;83;21753;-90
2023/04/10 03:03:13;;;;;;;28.23;17.10;;;;;;;7.97;100.00;100633.16;1628958;85;21217;-79
2023/04/10 03:06:22;;;;;;;28.75;17.12;;;;;;;8.05;100.00;100634.64;1670968;83;21216;-89
2023/04/10 03:09:29;;;;;;;30.43;18.35;;;;;;;8.07;100.00;100631.75;1668056;83;21268;-90
2023/04/10 03:12:35;;;;;;;22.17;18.62;;;;;;;8.08;100.00;100644.35;1676672;83;21204;-79
2023/04/10 03:15:41;;;;;;;25.88;19.65;;;;;;;8.05;100.00;100641.95;1647548;84;21251;-79
2023/04/10 03:18:47;;;;;;;20.27;15.68;;;;;;;8.24;100.00;100640.98;1648533;85;21207;-79
2023/04/10 03:21:53;;;;;;;23.73;18.10;;;;;;;8.27;100.00;100640.14;1674312;83;21298;-79
2023/04/10 03:24:58;;;;;;;28.00;19.82;;;;;;;8.02;100.00;100640.37;1642595;85;21244;-91
2023/04/10 03:28:03;;;;;;;26.10;19.32;;;;;;;8.11;100.00;100644.06;1660547;85;21221;-90
2023/04/10 03:31:11;;;;;;;41.70;19.80;;;;;;;8.17;100.00;100642.08;1659629;83;21204;-90
2023/04/10 03:34:19;;;;;;;28.57;19.57;;;;;;;8.34;100.00;100641.27;1670915;83;21268;-90
2023/04/10 03:37:26;;;;;;;30.77;19.52;;;;;;;8.31;100.00;100645.64;1648113;83;21264;-90
2023/04/10 03:40:33;;;;;;;28.75;19.48;;;;;;;8.35;100.00;100647.05;1669917;83;21781;-90
2023/04/10 03:43:40;;;;;;;24.32;17.90;;;;;;;8.26;100.00;100640.31;1639962;85;21252;-79
2023/04/10 03:46:45;;;;;;;25.05;19.37;;;;;;;8.14;100.00;100653.30;1640513;85;21213;-90
2023/04/10 03:49:53;;;;;;;25.15;19.90;;;;;;;8.19;100.00;100644.16;1650562;85;21228;-83
2023/04/10 03:53:00;;;;;;;25.68;18.30;;;;;;;8.30;100.00;100649.89;1667909;83;21245;-79
2023/04/10 03:56:07;;;;;;;27.75;19.70;;;;;;;8.35;100.00;100653.02;1634404;85;21754;-79
2023/04/10 03:59:13;;;;;;;30.00;17.82;;;;;;;8.30;100.00;100649.39;1626941;85;21773;-79
2023/04/10 04:02:20;;;;;;;25.72;18.30;;;;;;;8.35;100.00;100651.14;1662616;83;21764;-90
2023/04/10 04:05:27;;;;;;;30.37;20.70;;;;;;;8.50;100.00;100655.59;1667783;83;21192;-79
2023/04/10 04:08:50;;;;;;;30.85;20.08;;;;;;;8.47;100.00;100653.67;1665356;83;21215;-79
2023/04/10 04:11:57;;;;;;;30.60;19.35;;;;;;;8.47;100.00;100658.64;1645773;84;21222;-79
2023/04/10 04:15:06;;;;;;;29.12;19.67;;;;;;;8.67;100.00;100660.72;1659863;84;21198;-79
2023/04/10 04:18:14;;;;;;;31.17;20.50;;;;;;;8.77;100.00;100662.85;1661998;83;21270;-91
2023/04/10 04:21:22;;;;;;;35.30;19.82;;;;;;;8.77;100.00;100661.48;1659268;84;21223;-90
2023/04/10 04:24:33;;;;;;;28.75;19.57;;;;;;;8.82;100.00;100658.30;1670729;83;21217;-79
2023/04/10 04:27:41;;;;;;;29.15;19.92;;;;;;;8.84;100.00;100668.02;1657495;83;21213;-80
2023/04/10 04:30:49;;;;;;;30.00;20.02;;;;;;;8.89;100.00;100664.34;1645236;84;21741;-91
2023/04/10 04:34:06;;;;;;;30.25;18.73;;;;;;;9.01;100.00;100662.72;1601167;86;21267;-91
2023/04/10 04:37:16;;;;;;;28.40;19.35;;;;;;;9.08;100.00;100661.95;1654014;85;21823;-79
2023/04/10 04:40:27;;;;;;;31.02;18.70;;;;;;;9.28;100.00;100655.78;1646783;85;21791;-79
2023/04/10 04:43:52;;;;;;;29.60;19.75;;;;;;;9.27;100.00;100658.64;1649278;85;21211;-90
2023/04/10 04:49:36;;;;;;;24.43;17.77;;;;;;;9.45;100.00;100664.41;1669876;83;21875;-91
2023/04/10 04:52:46;;;;;;;27.22;18.15;;;;;;;9.48;100.00;100658.64;1624333;85;21186;-90
2023/04/10 04:56:05;;;;;;;28.98;18.77;;;;;;;9.65;100.00;100660.97;1670931;83;21230;-79
2023/04/10 05:01:50;;;;;;;23.45;17.02;;;;;;;9.80;100.00;100663.95;1668814;85;22077;-90
2023/04/10 05:04:59;;;;;;;28.52;16.80;;;;;;;9.87;100.00;100660.05;1663076;84;21239;-79
2023/04/10 05:08:11;;;;;;;22.77;15.35;;;;;;;10.04;100.00;100660.99;1666153;85;21755;-90
2023/04/10 05:11:21;;;;;;;21.97;14.68;;;;;;;10.10;100.00;100662.55;1695609;82;22118;-91
2023/04/10 05:14:40;;;;;;;22.58;15.90;;;;;;;10.24;100.00;100657.84;1686513;82;21753;-91
2023/04/10 05:17:51;;;;;;;22.42;14.58;;;;;;;10.35;100.00;100655.34;1690363;81;21214;-80
2023/04/10 05:20:59;;;;;;;22.02;14.35;;;;;;;10.35;100.00;100659.44;1678633;82;21204;-79
2023/04/10 05:24:13;;;;;;;23.75;14.80;;;;;;;10.42;100.00;100659.62;1680688;81;21291;-80
2023/04/10 05:27:37;;;;;;;26.25;13.60;;;;;;;10.54;100.00;100658.77;1672691;83;22121;-81
2023/04/10 05:30:50;;;;;;;28.40;13.30;;;;;;;10.48;100.00;100655.69;1649186;84;21711;-91
2023/04/10 05:33:52;;;;;;;19.30;14.50;;;;;;;10.47;100.00;100662.19;1692307;82;21610;-80
2023/04/10 05:37:07;;;;;;;22.73;14.20;;;;;;;10.71;100.00;100665.48;1691953;82;21529;-90
2023/04/10 05:40:17;;;;;;;18.27;12.15;;;;;;;10.66;100.00;100666.50;1696443;81;21158;-80
2023/04/10 05:43:42;;;;;;;19.10;13.25;;;;;;;10.69;100.00;100661.22;1640918;84;21237;-79
2023/04/10 05:47:06;;;;;;;18.27;12.35;;;;;;;10.92;100.00;100658.17;1847218;76;22498;-91
2023/04/10 05:50:30;;;;;;;27.37;14.07;;;;;;;10.94;100.00;100667.05;1803135;77;21180;-90
2023/04/10 05:53:40;;;;;;;20.30;12.60;;;;;;;10.97;100.00;100668.61;1813282;77;21230;-79
2023/04/10 05:56:51;;;;;;;19.57;12.15;;;;;;;10.99;100.00;100668.76;1811549;77;21182;-78
2023/04/10 06:00:04;;;;;;;22.22;12.73;;;;;;;11.05;100.00;100670.47;1807080;77;21734;-79
2023/04/10 06:03:30;;;;;;;21.50;12.95;;;;;;;11.04;100.00;100668.25;1810143;77;21117;-90
2023/04/10 06:06:38;;;;;;;24.77;13.35;;;;;;;11.19;100.00;100671.16;1810943;77;21864;-90
2023/04/10 06:09:43;;;;;;;19.82;12.63;;;;;;;11.27;100.00;100680.75;1785568;77;21685;-79
2023/04/10 06:12:48;;;;;;;19.55;11.63;;;;;;;11.26;100.00;100679.04;1810591;77;21114;-89
2023/04/10 06:15:50;;;;;;;21.42;13.53;;;;;;;11.43;100.00;100678.01;1810481;77;21192;-90
2023/04/10 06:18:56;;;;;;;29.48;14.78;;;;;;;11.49;100.00;100684.16;1814700;77;21135;-79
2023/04/10 06:22:02;;;;;;;31.42;14.50;;;;;;;11.54;100.00;100678.67;1809312;77;21671;-90
2023/04/10 06:25:07;;;;;;;21.25;13.45;;;;;;;11.65;100.00;100679.67;1805366;77;21184;-78
2023/04/10 06:28:13;;;;;;;20.40;13.80;;;;;;;11.69;99.36;100680.52;1806815;77;21485;-79
2023/04/10 06:31:21;;;;;;;27.95;15.53;;;;;;;11.80;98.91;100686.66;1808230;77;21219;-90
2023/04/10 06:34:26;;;;;;;18.65;12.85;;;;;;;11.97;97.27;100680.98;1808647;77;21154;-90
2023/04/10 06:37:36;;;;;;;26.87;14.10;;;;;;;11.96;97.24;100682.03;1799372;77;21796;-79
2023/04/10 06:40:43;;;;;;;23.95;14.53;;;;;;;12.03;95.41;100692.61;1812381;77;21812;-78
2023/04/10 06:43:50;;;;;;;19.90;13.05;;;;;;;12.07;95.34;100690.38;1811187;77;21172;-90
2023/04/10 06:46:56;;;;;;;25.70;13.32;;;;;;;12.10;95.38;100690.03;1804715;77;21185;-79
2023/04/10 06:50:01;;;;;;;20.32;13.03;;;;;;;12.08;94.77;100689.86;1808731;77;21164;-90
2023/04/10 06:53:07;;;;;;;20.57;13.05;;;;;;;12.09;94.82;100688.33;1811506;77;21766;-90
2023/04/10 06:56:13;;;;;;;28.23;13.40;;;;;;;12.17;94.74;100680.57;1810911;78;21157;-89
2023/04/10 06:59:18;;;;;;;27.65;13.95;;;;;;;12.20;95.53;100680.23;1796527;78;21212;-90
2023/04/10 07:02:23;;;;;;;25.60;13.83;;;;;;;12.33;93.49;100673.66;1806933;77;21149;-79
2023/04/10 07:05:29;;;;;;;22.95;13.05;;;;;;;12.45;94.48;100667.23;1799713;77;21180;-79
2023/04/10 07:08:37;;;;;;;23.65;14.00;;;;;;;12.49;95.46;100663.95;1801199;78;21125;-90
2023/04/10 07:11:42;;;;;;;20.70;12.95;;;;;;;12.62;94.27;100666.12;1798673;79;21208;-79
2023/04/10 07:14:49;;;;;;;17.92;12.63;;;;;;;12.72;91.92;100670.85;1803211;78;21165;-79
2023/04/10 07:17:55;;;;;;;21.23;12.58;;;;;;;12.82;90.39;100660.16;1797726;78;21223;-90
2023/04/10 07:21:01;;;;;;;20.12;13.08;;;;;;;12.74;88.64;100664.65;1805121;78;21160;-79
2023/04/10 07:24:07;;;;;;;16.30;11.63;;;;;;;12.73;88.34;100660.20;1801718;77;21154;-90
2023/04/10 07:27:12;;;;;;;28.77;13.28;;;;;;;12.76;88.83;100660.37;1814682;78;21139;-89
2023/04/10 07:30:17;;;;;;;16.87;10.88;;;;;;;12.89;87.61;100652.39;1798275;78;21199;-79
2023/04/10 07:33:23;;;;;;;25.35;12.58;;;;;;;12.99;86.77;100657.11;1813043;77;21283;-78
2023/04/10 07:36:28;;;;;;;24.15;12.00;;;;;;;13.10;85.75;100653.06;1808538;77;21159;-90
2023/04/10 07:39:33;;;;;;;22.50;11.63;;;;;;;13.08;82.66;100646.92;1809186;77;21685;-90
2023/04/10 07:42:40;;;;;;;20.17;11.90;;;;;;;13.13;81.34;100654.61;1808743;78;21220;-90
2023/04/10 07:45:46;;;;;;;25.65;12.18;;;;;;;13.27;81.87;100645.58;1803833;78;21474;-78
2023/04/10 07:48:53;;;;;;;15.85;11.30;;;;;;;13.28;82.85;100641.27;1757089;79;21224;-79
2023/04/10 07:52:00;;;;;;;20.70;11.22;;;;;;;13.48;81.65;100652.58;1761476;80;21554;-90
2023/04/10 07:55:07;;;;;;;16.50;10.03;;;;;;;13.44;82.24;100638.88;1770939;80;21980;-91
2023/04/10 07:58:14;;;;;;;21.87;10.63;;;;;;;13.51;79.43;100641.74;1767184;80;21162;-79
2023/04/10 08:01:20;;;;;;;21.27;9.95;;;;;;;13.44;78.28;100641.62;1765939;80;21765;-79
2023/04/10 08:04:26;;;;;;;24.70;11.05;;;;;;;13.40;76.96;100630.66;1758956;80;21205;-91
2023/04/10 08:07:35;;;;;;;16.37;9.25;;;;;;;13.28;76.24;100630.80;1759070;80;21253;-90
2023/04/10 08:10:43;;;;;;;15.23;8.88;;;;;;;13.20;74.95;100633.06;1773649;80;21722;-82
2023/04/10 08:13:50;;;;;;;20.72;8.28;;;;;;;13.21;73.57;100627.89;1763286;80;21134;-79
2023/04/10 08:16:56;;;;;;;15.18;8.98;;;;;;;13.32;74.23;100628.02;1767175;80;21825;-89
2023/04/10 08:20:03;;;;;;;13.08;7.12;;;;;;;13.60;73.55;100619.13;1756985;80;21134;-91
2023/04/10 08:23:09;;;;;;;16.27;7.53;;;;;;;13.80;72.31;100623.04;1769267;80;21193;-90
2023/04/10 08:26:16;;;;;;;13.43;6.62;;;;;;;13.79;69.20;100608.97;1764509;80;21154;-79
2023/04/10 08:29:23;;;;;;;12.85;6.30;;;;;;;13.85;69.16;100612.31;1768393;80;21192;-79
2023/04/10 08:32:29;;;;;;;12.07;6.85;;;;;;;13.94;67.92;100613.92;1774463;80;21169;-79
2023/04/10 08:35:36;;;;;;;16.50;6.08;;;;;;;14.15;67.07;100594.40;1761207;80;21214;-79
2023/04/10 08:38:41;;;;;;;14.00;5.62;;;;;;;14.17;66.39;100598.67;1754837;80;21245;-79
2023/04/10 08:41:48;;;;;;;11.50;4.95;;;;;;;14.21;66.46;100599.12;1766568;80;21178;-79
2023/04/10 08:44:56;;;;;;;10.78;5.30;;;;;;;14.20;65.34;100598.80;1769343;80;21201;-91
2023/04/10 08:48:01;;;;;;;12.60;5.12;;;;;;;14.16;62.20;100596.09;1729877;82;21192;-91
2023/04/10 08:51:08;;;;;;;14.78;5.45;;;;;;;14.09;62.16;100592.42;1737071;82;21236;-91
2023/04/10 08:54:27;;;;;;;11.20;6.30;;;;;;;14.00;64.62;100583.42;1719975;83;21205;-80
2023/04/10 08:57:21;;;;;;;13.90;6.47;;;;;;;14.13;64.42;100582.75;1741287;82;21224;-80
2023/04/10 09:00:25;;;;;;;16.00;5.75;;;;;;;14.29;64.96;100583.36;1693884;84;21205;-91
2023/04/10 09:03:33;;;;;;;8.65;4.90;;;;;;;14.33;61.61;100573.67;1726792;82;21165;-79
2023/04/10 09:06:39;;;;;;;13.18;5.83;;;;;;;14.24;59.80;100569.33;1720841;82;21722;-90
2023/04/10 09:09:45;;;;;;;8.80;5.25;;;;;;;14.26;60.16;100569.16;1712574;82;21227;-90
2023/04/10 09:12:53;;;;;;;14.45;6.03;;;;;;;14.33;61.96;100559.91;1705102;82;21174;-91
2023/04/10 09:16:05;;;;;;;14.68;5.40;;;;;;;14.43;60.78;100560.97;1706797;82;21251;-91
2023/04/10 09:19:12;;;;;;;14.43;6.00;;;;;;;14.52;60.77;100555.70;1721753;82;21312;-90
2023/04/10 09:22:17;;;;;;;11.68;5.22;;;;;;;14.46;61.40;100559.21;1729689;82;21190;-91
2023/04/10 09:25:42;;;;;;;13.38;5.83;;;;;;;14.36;63.57;100555.94;1719933;82;21225;-91
2023/04/10 09:29:15;;;;;;;18.30;6.22;;;;;;;14.41;63.25;100556.20;1727414;82;21206;-80
2023/04/10 09:32:22;;;;;;;13.93;6.62;;;;;;;14.52;62.58;100555.70;1722721;82;21182;-90
2023/04/10 09:35:29;;;;;;;14.60;6.62;;;;;;;14.42;63.83;100543.28;1720669;82;21293;-91
2023/04/10 09:38:34;;;;;;;12.28;6.20;;;;;;;14.42;63.32;100544.66;1725448;82;21173;-80
2023/04/10 09:41:41;;;;;;;25.25;6.92;;;;;;;14.55;63.57;100546.21;1727520;82;21478;-80
2023/04/10 09:44:47;;;;;;;18.85;7.08;;;;;;;14.42;64.29;100536.41;1710687;82;21238;-90
2023/04/10 09:48:10;;;;;;;13.50;6.85;;;;;;;14.50;64.45;100532.19;1728604;82;21671;-91
2023/04/10 09:51:20;;;;;;;18.07;6.62;;;;;;;14.52;66.71;100531.45;1742406;81;21189;-80
2023/04/10 09:54:26;;;;;;;13.78;6.67;;;;;;;14.57;64.38;100535.31;1770284;81;21217;-91
2023/04/10 09:57:35;;;;;;;10.60;5.92;;;;;;;14.48;63.05;100525.48;1728235;81;21165;-80
2023/04/10 10:00:49;;;;;;;16.52;7.35;;;;;;;14.55;65.36;100537.95;1747144;80;21197;-91
2023/04/10 10:03:56;;;;;;;11.22;7.05;;;;;;;14.55;63.05;100527.80;1748748;80;21160;-91
2023/04/10 10:07:02;;;;;;;17.80;6.30;;;;;;;14.64;64.72;100530.42;1747876;80;21188;-80
2023/04/10 10:10:09;;;;;;;13.98;5.17;;;;;;;14.85;62.26;100524.02;1744107;80;21164;-80
2023/04/10 10:13:16;;;;;;;11.35;5.62;;;;;;;14.94;63.58;100528.34;1748284;81;21208;-80
2023/04/10 10:16:46;;;;;;;14.95;5.78;;;;;;;15.07;63.31;100533.43;1746797;80;21188;-91
2023/04/10 10:20:16;;;;;;;16.93;4.87;;;;;;;15.16;62.12;100523.11;1742717;80;21528;-80
2023/04/10 10:23:22;;;;;;;11.03;5.27;;;;;;;14.98;58.74;100522.23;1748569;80;21204;-90
2023/04/10 10:26:28;;;;;;;13.95;5.22;;;;;;;14.86;59.46;100523.81;1747436;81;21631;-91
2023/04/10 10:29:33;;;;;;;8.73;5.17;;;;;;;14.92;60.50;100517.53;1745902;80;21228;-90
2023/04/10 10:32:38;;;;;;;8.48;4.92;;;;;;;14.95;62.71;100518.48;1745820;81;21230;-80
2023/04/10 10:35:45;;;;;;;13.45;5.40;;;;;;;15.07;59.05;100511.92;1729048;80;21236;-86
2023/04/10 10:39:13;;;;;;;9.85;5.30;;;;;;;15.03;59.67;100500.44;1726754;81;21521;-80
2023/04/10 10:42:48;;;;;;;16.60;5.65;;;;;;;15.14;61.22;100510.58;1744060;82;21219;-80
2023/04/10 10:46:05;;;;;;;17.52;5.72;;;;;;;15.24;60.61;100506.44;1739314;82;22160;-91
2023/04/10 10:49:11;;;;;;;17.70;6.15;;;;;;;15.27;60.34;100499.13;1743202;80;22078;-80
2023/04/10 10:52:17;;;;;;;16.77;4.97;;;;;;;15.22;59.48;100489.77;1738724;81;21577;-81
2023/04/10 10:55:36;;;;;;;14.55;5.03;;;;;;;15.17;60.28;100487.61;1723234;82;21213;-91
2023/04/10 10:59:02;;;;;;;9.08;5.47;;;;;;;15.12;60.35;100486.52;1736804;82;21221;-79
2023/04/10 11:02:26;;;;;;;15.53;5.50;;;;;;;15.11;60.49;100494.47;1723171;82;21229;-90
2023/04/10 11:05:56;;;;;;;12.95;5.47;;;;;;;15.05;58.55;100490.06;1716290;82;21738;-90
2023/04/10 11:09:01;;;;;;;12.23;5.62;;;;;;;15.13;57.49;100495.11;1707343;84;21765;-79
2023/04/10 11:12:07;;;;;;;11.35;6.00;;;;;;;14.99;60.45;100485.36;1707836;84;21169;-87
2023/04/10 11:15:13;;;;;;;11.48;4.90;;;;;;;14.97;59.57;100476.47;1708145;84;21213;-80
2023/04/10 11:18:22;;;;;;;13.95;5.17;;;;;;;15.01;60.75;100484.66;1723366;82;21493;-90
2023/04/10 11:21:30;;;;;;;10.65;4.55;;;;;;;15.08;59.85;100473.14;1707404;82;21774;-79
2023/04/10 11:24:38;;;;;;;12.10;5.65;;;;;;;15.13;60.99;100464.80;1707596;84;21229;-79
2023/04/10 11:27:54;;;;;;;11.35;4.60;;;;;;;15.13;60.55;100471.69;1718844;82;21175;-90
2023/04/10 11:31:01;;;;;;;8.88;4.95;;;;;;;15.06;60.71;100475.27;1711825;82;21258;-89
2023/04/10 11:34:15;;;;;;;16.67;5.22;;;;;;;15.06;61.82;100468.38;1712462;82;21201;-81
2023/04/10 11:37:29;;;;;;;15.08;5.70;;;;;;;15.20;64.34;100472.06;1715862;82;21152;-90
2023/04/10 11:40:34;;;;;;;19.57;4.92;;;;;;;15.19;63.37;100466.20;1723665;82;21153;-80
2023/04/10 11:43:40;;;;;;;15.40;5.35;;;;;;;15.36;60.53;100465.36;1731293;82;21216;-79
2023/04/10 11:46:50;;;;;;;15.68;5.42;;;;;;;15.31;61.16;100463.75;1740476;82;21248;-81
2023/04/10 11:49:57;;;;;;;11.75;5.20;;;;;;;15.36;60.10;100455.72;1729737;81;21245;-90
2023/04/10 11:53:03;;;;;;;13.00;5.30;;;;;;;15.29;59.35;100457.57;1715767;81;21785;-90
2023/04/10 11:56:08;;;;;;;13.18;5.72;;;;;;;15.31;60.86;100452.73;1757986;80;21180;-81
2023/04/10 11:59:16;;;;;;;9.53;4.85;;;;;;;15.33;61.82;100445.09;1731741;82;21204;-91
2023/04/10 12:02:22;;;;;;;11.45;5.05;;;;;;;15.60;59.65;100442.78;1738000;81;21179;-80
2023/04/10 12:05:28;;;;;;;11.57;5.10;;;;;;;15.81;60.25;100447.89;1726143;82;21211;-89
2023/04/10 12:08:49;;;;;;;10.93;4.85;;;;;;;15.72;58.92;100427.92;1762032;79;21198;-80
2023/04/10 12:12:04;;;;;;;10.85;5.35;;;;;;;15.78;59.85;100428.46;1762018;79;21185;-80
2023/04/10 12:15:12;;;;;;;10.90;5.08;;;;;;;15.75;58.49;100430.25;1757793;81;21817;-90
2023/04/10 12:18:18;;;;;;;9.43;4.62;;;;;;;15.65;56.98;100417.38;1759498;80;21208;-83
2023/04/10 12:21:25;;;;;;;9.23;5.12;;;;;;;15.53;58.50;100423.16;1719664;81;21248;-90
2023/04/10 12:24:58;;;;;;;12.23;4.83;;;;;;;15.36;58.20;100420.42;1741163;81;21251;-80
2023/04/10 12:28:05;;;;;;;8.00;4.58;;;;;;;15.38;59.46;100416.39;1739342;81;21149;-90
2023/04/10 12:31:11;;;;;;;8.70;4.70;;;;;;;15.38;59.74;100410.03;1767596;79;21172;-91
2023/04/10 12:34:18;;;;;;;9.60;4.72;;;;;;;15.51;59.30;100411.47;1733686;81;21197;-82
2023/04/10 12:37:24;;;;;;;9.95;4.92;;;;;;;15.47;57.69;100399.14;1727710;81;21173;-90
2023/04/10 12:40:30;;;;;;;15.15;5.53;;;;;;;15.39;59.31;100404.33;1760154;79;21232;-91
2023/04/10 12:43:40;;;;;;;10.38;5.12;;;;;;;15.48;56.74;100408.61;1776798;79;21212;-80
2023/04/10 12:46:35;;;;;;;17.55;5.80;;;;;;;15.44;58.51;100391.31;1775958;79;21158;-80
2023/04/10 12:49:21;;;;;;;10.25;4.72;;;;;;;15.43;60.11;100385.45;1772523;81;21196;-90
2023/04/10 12:52:30;;;;;;;10.72;4.92;;;;;;;15.55;61.65;100381.06;1768310;81;21244;-88
2023/04/10 12:55:37;;;;;;;9.95;4.35;;;;;;;15.67;60.52;100372.55;1780355;79;21264;-80
2023/04/10 12:58:44;;;;;;;7.03;4.37;;;;;;;15.70;61.09;100374.02;1794991;79;21527;-79
2023/04/10 13:01:50;;;;;;;19.23;4.80;;;;;;;15.77;57.31;100378.51;1772473;79;21198;-80
2023/04/10 13:04:58;;;;;;;7.20;4.12;;;;;;;15.76;56.65;100372.68;1784625;80;21854;-90
2023/04/10 13:08:04;;;;;;;7.08;4.08;;;;;;;15.75;56.66;100374.24;1787493;79;21242;-91
2023/04/10 13:11:10;;;;;;;12.58;4.28;;;;;;;15.72;56.70;100370.02;1789335;79;21773;-86
2023/04/10 13:14:17;;;;;;;10.60;4.70;;;;;;;15.74;57.31;100369.27;1791140;79;21220;-91
2023/04/10 13:17:23;;;;;;;11.63;4.72;;;;;;;15.87;55.11;100367.07;1771134;81;21257;-80
2023/04/10 13:20:30;;;;;;;7.28;4.03;;;;;;;15.89;54.82;100382.87;1773354;79;21197;-81
2023/04/10 13:23:35;;;;;;;10.15;4.85;;;;;;;15.69;54.19;100364.91;1787544;79;21721;-80
2023/04/10 13:26:42;;;;;;;6.55;4.12;;;;;;;15.70;56.75;100356.09;1788467;80;21681;-83
2023/04/10 13:29:49;;;;;;;10.13;4.40;;;;;;;15.68;56.10;100360.98;1787634;80;21191;-80
2023/04/10 13:32:55;;;;;;;13.35;4.53;;;;;;;15.59;56.02;100361.14;1787740;79;22112;-80
2023/04/10 13:35:55;;;;;;;8.28;4.30;;;;;;;15.60;57.22;100351.80;1788217;79;21636;-89
2023/04/10 13:39:02;;;;;;;13.30;4.05;;;;;;;15.54;57.25;100351.27;1803805;78;21169;-80
2023/04/10 13:42:08;;;;;;;12.05;5.47;;;;;;;15.56;57.30;100347.76;1795669;79;21167;-80
2023/04/10 13:45:15;;;;;;;11.75;4.78;;;;;;;15.64;56.60;100358.32;1788067;79;21266;-90
2023/04/10 13:48:21;;;;;;;12.95;5.25;;;;;;;15.60;56.72;100346.82;1788746;79;21140;-83
2023/04/10 13:51:29;;;;;;;14.50;4.50;;;;;;;15.50;57.24;100335.34;1797269;79;21198;-89
2023/04/10 13:54:29;;;;;;;12.65;4.30;;;;;;;15.53;56.67;100337.70;1794344;79;21147;-80
2023/04/10 13:57:35;;;;;;;10.80;4.12;;;;;;;15.58;56.09;100343.44;1772116;81;21154;-81
2023/04/10 14:00:41;;;;;;;14.87;4.83;;;;;;;15.56;56.30;100340.86;1770498;81;21793;-80
2023/04/10 14:03:46;;;;;;;8.35;4.20;;;;;;;15.57;55.31;100339.83;1770383;81;21169;-91
2023/04/10 14:06:56;;;;;;;10.20;4.60;;;;;;;15.61;55.65;100330.59;1772117;81;21145;-85
2023/04/10 14:10:01;;;;;;;13.00;4.97;;;;;;;15.47;56.21;100334.38;1771782;81;21208;-90
2023/04/10 14:13:10;;;;;;;17.35;4.75;;;;;;;15.35;56.97;100339.66;1770305;81;21208;-80
2023/04/10 14:16:17;;;;;;;9.98;4.55;;;;;;;15.34;56.24;100342.94;1770405;79;21710;-80
2023/04/10 14:19:23;;;;;;;13.20;4.95;;;;;;;15.27;57.39;100341.20;1771835;81;21197;-80
2023/04/10 14:22:30;;;;;;;10.08;4.85;;;;;;;15.29;57.92;100337.20;1771875;81;21204;-90
2023/04/10 14:25:36;;;;;;;12.45;4.20;;;;;;;15.26;57.88;100337.60;1770848;81;21197;-79
2023/04/10 14:28:44;;;;;;;12.13;5.12;;;;;;;15.20;58.81;100340.34;1771690;81;21738;-87
2023/04/10 14:31:53;;;;;;;9.80;4.90;;;;;;;15.20;58.13;100341.72;1771982;81;21860;-90
2023/04/10 14:34:58;;;;;;;15.40;4.90;;;;;;;15.45;57.20;100328.23;1770741;81;21266;-80
2023/04/10 14:38:05;;;;;;;10.88;4.75;;;;;;;15.39;57.46;100327.16;1771836;81;21225;-86
2023/04/10 14:41:12;;;;;;;17.60;4.72;;;;;;;15.34;57.45;100325.03;1770300;81;21208;-80
2023/04/10 14:44:18;;;;;;;12.40;5.22;;;;;;;15.20;58.15;100318.30;1770464;81;21733;-80
2023/04/10 14:47:25;;;;;;;12.58;5.37;;;;;;;15.22;58.09;100316.17;1771869;81;21169;-90
2023/04/10 14:50:30;;;;;;;9.73;5.47;;;;;;;15.25;58.24;100315.77;1771939;81;21165;-90
2023/04/10 14:53:37;;;;;;;13.85;5.53;;;;;;;15.29;58.03;100315.66;1771979;81;21192;-88